Time;durP1;ratioP1;P1;durP2;ratioP2;P2;SDS_P1;SDS_P2;PMS_P1;PMS_P2;Temp;Humidity;BMP_temperature;BMP_pressure;BME280_temperature;BME280_humidity;BME280_pressure;Samples;Min_cycle;Max_cycle;Signal;HPM_P1;HPM_P2
2022/11/03 00:00:28;;;;;;;13.70;6.15;;;8.50;99.90;;;;;;5071630;28;20025;-47
2022/11/03 00:02:53;;;;;;;25.08;8.93;;;8.40;99.90;;;;;;5070144;28;20024;-47
2022/11/03 00:08:03;;;;;;;26.27;10.40;;;8.30;99.90;;;;;;5071470;28;20039;-48
2022/11/03 00:10:29;;;;;;;20.75;9.02;;;8.40;99.90;;;;;;5071498;28;20492;-48
2022/11/03 00:12:55;;;;;;;22.65;9.20;;;8.40;99.90;;;;;;5071133;28;20108;-47
2022/11/03 00:15:20;;;;;;;29.92;10.18;;;8.40;99.90;;;;;;5071534;28;20523;-52
2022/11/03 00:17:46;;;;;;;22.63;9.25;;;8.40;99.90;;;;;;5070070;28;20044;-48
2022/11/03 00:20:11;;;;;;;25.58;9.52;;;8.30;99.90;;;;;;5071447;28;20031;-50
2022/11/03 00:22:37;;;;;;;28.67;10.07;;;8.30;99.90;;;;;;5071026;28;20163;-47
2022/11/03 00:25:03;;;;;;;33.20;12.52;;;8.30;99.90;;;;;;5071392;28;20074;-49
2022/11/03 00:27:28;;;;;;;23.25;10.85;;;8.20;99.90;;;;;;5071373;28;20020;-51
2022/11/03 00:29:55;;;;;;;21.17;7.72;;;8.20;99.90;;;;;;5071186;28;20059;-47
2022/11/03 00:32:20;;;;;;;18.63;7.85;;;8.20;99.90;;;;;;5070443;28;20032;-48
2022/11/03 00:34:46;;;;;;;30.52;8.60;;;8.10;99.90;;;;;;5071288;28;20029;-49
2022/11/03 00:37:11;;;;;;;16.60;7.53;;;8.10;99.90;;;;;;5071125;28;20052;-46
2022/11/03 00:39:37;;;;;;;20.73;6.75;;;8.10;99.90;;;;;;5071441;28;20075;-47
2022/11/03 00:42:02;;;;;;;16.08;5.47;;;8.20;99.90;;;;;;5071092;28;20050;-52
2022/11/03 00:44:28;;;;;;;13.48;5.32;;;8.10;99.90;;;;;;5071455;28;20028;-46
2022/11/03 00:46:53;;;;;;;15.23;4.80;;;8.00;99.90;;;;;;5071352;28;20381;-46
2022/11/03 00:49:19;;;;;;;20.35;6.18;;;7.90;99.90;;;;;;5071771;28;20457;-49
2022/11/03 00:51:45;;;;;;;13.07;4.32;;;7.80;99.90;;;;;;5071225;28;20095;-48
2022/11/03 00:54:10;;;;;;;15.40;4.15;;;7.70;99.90;;;;;;5070924;28;20028;-45
2022/11/03 00:56:38;;;;;;;9.60;4.63;;;7.60;99.90;;;;;;5071202;28;20052;-48
2022/11/03 00:59:05;;;;;;;15.43;6.57;;;7.40;99.90;;;;;;5072749;28;20498;-50
2022/11/03 01:01:39;;;;;;;14.43;5.50;;;7.40;99.90;;;;;;5073574;28;20476;-48
2022/11/03 01:06:52;;;;;;;15.93;6.28;;;7.40;99.90;;;;;;5075132;28;20039;-48
2022/11/03 01:09:50;;;;;;;10.70;5.38;;;7.40;99.90;;;;;;5075035;28;20029;-48
2022/11/03 01:12:18;;;;;;;11.45;5.18;;;7.40;99.90;;;;;;5029205;28;20037;-46
2022/11/03 01:14:49;;;;;;;9.57;4.53;;;7.30;99.90;;;;;;5074654;28;20028;-51
2022/11/03 01:17:25;;;;;;;8.73;4.28;;;7.40;99.90;;;;;;5075255;28;20043;-50
2022/11/03 01:19:51;;;;;;;11.75;4.10;;;7.40;99.90;;;;;;5074061;28;20494;-47
2022/11/03 01:22:18;;;;;;;8.52;4.50;;;7.40;99.90;;;;;;5074182;28;20040;-49
2022/11/03 01:24:44;;;;;;;10.32;4.05;;;7.40;99.90;;;;;;5074421;28;20021;-46
2022/11/03 01:27:13;;;;;;;9.50;4.60;;;7.30;99.90;;;;;;5074439;28;20032;-48
2022/11/03 01:29:38;;;;;;;10.63;4.70;;;7.30;99.90;;;;;;5074406;28;20036;-48
2022/11/03 01:32:04;;;;;;;10.15;4.28;;;7.30;99.90;;;;;;5073667;28;20515;-46
2022/11/03 01:34:30;;;;;;;10.07;4.53;;;7.30;99.90;;;;;;5073053;28;20407;-46
2022/11/03 01:36:56;;;;;;;11.25;4.80;;;7.30;99.90;;;;;;5074190;28;20103;-50
2022/11/03 01:39:21;;;;;;;12.25;4.68;;;7.40;99.90;;;;;;5074215;28;20028;-51
2022/11/03 01:41:50;;;;;;;18.85;4.97;;;7.40;99.90;;;;;;5073966;28;20081;-47
2022/11/03 01:44:15;;;;;;;11.32;3.72;;;7.40;99.90;;;;;;5074224;28;20056;-47
2022/11/03 01:46:48;;;;;;;16.17;4.35;;;7.40;99.90;;;;;;5074027;28;20068;-48
2022/11/03 01:49:21;;;;;;;5.60;3.72;;;7.50;99.90;;;;;;5074592;28;20550;-49
2022/11/03 01:51:53;;;;;;;10.38;4.30;;;7.50;99.90;;;;;;5073918;28;20082;-45
2022/11/03 01:54:21;;;;;;;11.73;4.13;;;7.40;99.90;;;;;;5073804;28;20028;-46
2022/11/03 01:56:47;;;;;;;13.48;3.88;;;7.40;99.90;;;;;;5072548;28;20025;-46
2022/11/03 01:59:19;;;;;;;15.60;4.53;;;7.40;99.90;;;;;;5073877;28;20044;-45
2022/11/03 02:01:45;;;;;;;14.00;4.50;;;7.40;99.90;;;;;;5073572;28;20099;-45
2022/11/03 02:04:21;;;;;;;9.43;4.63;;;7.40;99.90;;;;;;5073383;28;20098;-46
2022/11/03 02:06:52;;;;;;;12.27;4.88;;;7.40;99.90;;;;;;5074123;28;20032;-48
2022/11/03 02:09:18;;;;;;;14.23;4.85;;;7.30;99.90;;;;;;5073538;28;20067;-48
2022/11/03 02:14:28;;;;;;;16.13;5.18;;;7.20;99.90;;;;;;5073540;28;20032;-47
2022/11/03 02:16:58;;;;;;;18.23;5.68;;;7.20;99.90;;;;;;5073568;28;20024;-49
2022/11/03 02:19:44;;;;;;;10.02;4.75;;;7.20;99.90;;;;;;5073469;28;20056;-50
2022/11/03 02:22:31;;;;;;;9.63;4.60;;;7.10;99.90;;;;;;5072973;28;20037;-51
2022/11/03 02:25:30;;;;;;;14.00;5.22;;;7.00;99.90;;;;;;5073325;28;20024;-50
2022/11/03 02:27:56;;;;;;;17.85;5.43;;;6.90;99.90;;;;;;5073242;28;20038;-49
2022/11/03 02:30:22;;;;;;;12.52;4.43;;;6.70;99.90;;;;;;5073356;28;20024;-52
2022/11/03 02:32:56;;;;;;;15.70;4.97;;;6.70;99.90;;;;;;5072117;28;20500;-48
2022/11/03 02:35:55;;;;;;;16.55;5.05;;;6.70;99.90;;;;;;5073152;28;20021;-53
2022/11/03 02:38:25;;;;;;;11.00;4.80;;;6.70;99.90;;;;;;5073048;28;20197;-49
2022/11/03 02:40:54;;;;;;;10.35;4.00;;;6.70;99.90;;;;;;5073204;28;20020;-50
2022/11/03 02:43:23;;;;;;;10.60;5.00;;;6.70;99.90;;;;;;5072417;28;20028;-46
2022/11/03 02:45:50;;;;;;;12.43;4.68;;;6.70;99.90;;;;;;5071737;28;20052;-51
2022/11/03 02:48:18;;;;;;;10.82;4.57;;;6.70;99.90;;;;;;5072840;28;20074;-48
2022/11/03 02:50:45;;;;;;;13.70;4.43;;;6.70;99.90;;;;;;5072856;28;20024;-57
2022/11/03 02:53:12;;;;;;;13.80;5.47;;;6.70;99.90;;;;;;5072841;28;20025;-46
2022/11/03 02:55:54;;;;;;;12.05;4.65;;;6.70;99.90;;;;;;5071510;28;20032;-46
2022/11/03 02:58:29;;;;;;;21.27;4.63;;;6.70;99.90;;;;;;5072803;28;20029;-46
2022/11/03 03:01:13;;;;;;;11.90;4.90;;;6.70;99.90;;;;;;5072705;28;20021;-46
2022/11/03 03:03:53;;;;;;;10.13;5.18;;;6.80;99.90;;;;;;5072412;28;20399;-44
2022/11/03 03:06:49;;;;;;;12.63;4.95;;;6.90;99.90;;;;;;5072438;28;20131;-47
2022/11/03 03:09:20;;;;;;;13.00;4.60;;;6.90;99.90;;;;;;5067618;28;20056;-46
2022/11/03 03:11:48;;;;;;;10.65;4.57;;;6.80;99.90;;;;;;5072000;28;20032;-54
2022/11/03 03:14:20;;;;;;;12.32;4.68;;;6.80;99.90;;;;;;5070613;28;20029;-48
2022/11/03 03:17:00;;;;;;;9.85;5.18;;;6.80;99.90;;;;;;5070828;28;20051;-49
2022/11/03 03:19:45;;;;;;;12.65;5.35;;;6.80;99.90;;;;;;5072222;28;20017;-47
2022/11/03 03:22:38;;;;;;;12.60;5.95;;;6.80;99.90;;;;;;5071086;28;20024;-48
2022/11/03 03:25:16;;;;;;;13.38;6.65;;;6.90;99.90;;;;;;5072267;28;20365;-46
2022/11/03 03:27:47;;;;;;;15.55;5.88;;;6.90;99.90;;;;;;5072242;28;20064;-46
2022/11/03 03:30:13;;;;;;;20.08;5.70;;;7.00;99.90;;;;;;5072304;28;20034;-47
2022/11/03 03:32:44;;;;;;;24.45;6.82;;;7.00;99.90;;;;;;5071812;28;20032;-47
2022/11/03 03:35:15;;;;;;;14.80;6.30;;;7.00;99.90;;;;;;5072024;28;20442;-47
2022/11/03 03:37:45;;;;;;;14.68;5.85;;;7.00;99.90;;;;;;5070900;28;20048;-50
2022/11/03 03:40:14;;;;;;;16.20;5.95;;;7.00;99.90;;;;;;5072171;28;20024;-46
2022/11/03 03:42:42;;;;;;;16.60;6.07;;;6.90;99.90;;;;;;5071794;28;20076;-47
2022/11/03 03:45:10;;;;;;;17.20;5.60;;;6.90;99.90;;;;;;5071988;28;20058;-51
2022/11/03 03:47:36;;;;;;;12.90;4.68;;;6.90;99.90;;;;;;5071815;28;20069;-50
2022/11/03 03:50:02;;;;;;;12.40;4.95;;;6.80;99.90;;;;;;5072006;28;20115;-46
2022/11/03 03:52:28;;;;;;;10.05;4.90;;;6.80;99.90;;;;;;5070401;28;20399;-46
2022/11/03 03:54:55;;;;;;;14.60;5.43;;;6.70;99.90;;;;;;5071703;28;20029;-50
2022/11/03 03:57:23;;;;;;;14.98;5.20;;;6.70;99.90;;;;;;5070350;28;20048;-49
2022/11/03 03:59:49;;;;;;;14.57;5.93;;;6.70;99.90;;;;;;5071604;28;20101;-52
2022/11/03 04:02:15;;;;;;;16.92;4.72;;;6.80;99.90;;;;;;5070003;28;20059;-49
2022/11/03 04:04:41;;;;;;;10.40;4.38;;;6.80;99.90;;;;;;5071924;28;20028;-47
2022/11/03 04:09:50;;;;;;;9.18;4.22;;;6.60;99.90;;;;;;5071751;28;20035;-47
2022/11/03 04:23:14;;;;;;;13.35;5.78;;;6.70;99.90;;;;;;5071245;28;19961;-46
2022/11/03 04:25:46;;;;;;;13.40;5.55;;;6.70;99.90;;;;;;5071404;28;20036;-47
2022/11/03 04:28:13;;;;;;;11.05;5.45;;;6.70;99.90;;;;;;5071362;28;20082;-52
2022/11/03 04:30:39;;;;;;;14.18;5.53;;;6.70;99.90;;;;;;5071414;28;20032;-46
2022/11/03 04:33:25;;;;;;;14.52;6.20;;;6.70;99.90;;;;;;5072199;28;20032;-49
2022/11/03 04:35:52;;;;;;;15.30;6.15;;;6.60;99.90;;;;;;5075116;28;20055;-46
2022/11/03 04:38:22;;;;;;;19.20;7.13;;;6.60;99.90;;;;;;5075252;28;20070;-47
2022/11/03 04:40:55;;;;;;;15.10;6.43;;;6.70;99.90;;;;;;5075751;28;20062;-50
2022/11/03 04:43:35;;;;;;;21.75;7.57;;;6.70;99.90;;;;;;5074922;28;20427;-49
2022/11/03 04:46:01;;;;;;;14.40;5.47;;;6.70;99.90;;;;;;5075250;28;20078;-51
2022/11/03 04:48:28;;;;;;;14.85;6.22;;;6.60;99.90;;;;;;5075089;28;20094;-47
2022/11/03 04:50:57;;;;;;;13.57;6.30;;;6.60;99.90;;;;;;5075075;28;20058;-46
2022/11/03 04:53:26;;;;;;;11.70;6.10;;;6.60;99.90;;;;;;5074587;28;20028;-49
2022/11/03 04:55:53;;;;;;;16.70;5.65;;;6.60;99.90;;;;;;5074932;28;20021;-47
2022/11/03 04:58:22;;;;;;;14.15;4.95;;;6.60;99.90;;;;;;5074927;28;20499;-47
2022/11/03 05:00:57;;;;;;;15.93;5.65;;;6.50;99.90;;;;;;5074861;28;20107;-47
2022/11/03 05:03:26;;;;;;;15.77;6.35;;;6.50;99.90;;;;;;5074533;28;20502;-50
2022/11/03 05:05:51;;;;;;;15.75;6.07;;;6.50;99.90;;;;;;5074778;28;20052;-47
2022/11/03 05:08:18;;;;;;;9.00;5.38;;;6.60;99.90;;;;;;5074484;28;20468;-49
2022/11/03 05:10:44;;;;;;;17.65;5.78;;;6.60;99.90;;;;;;5073428;28;20515;-48
2022/11/03 05:13:16;;;;;;;15.77;6.13;;;6.60;99.90;;;;;;5074302;28;20028;-50
2022/11/03 05:15:44;;;;;;;20.52;5.57;;;6.60;99.90;;;;;;5073261;28;20029;-50
2022/11/03 05:18:21;;;;;;;18.83;7.57;;;6.60;99.90;;;;;;5074465;28;20151;-46
2022/11/03 05:20:56;;;;;;;15.65;6.32;;;6.50;99.90;;;;;;5074402;28;20395;-49
2022/11/03 05:23:22;;;;;;;13.02;5.43;;;6.50;99.90;;;;;;5094175;23;20048;-51
2022/11/03 05:25:52;;;;;;;13.02;5.80;;;6.50;99.90;;;;;;5074431;28;20031;-51
2022/11/03 05:28:47;;;;;;;10.40;5.68;;;6.50;99.90;;;;;;5074266;28;20472;-50
2022/11/03 05:31:22;;;;;;;11.13;5.05;;;6.40;99.90;;;;;;5072657;28;20041;-44
2022/11/03 05:33:49;;;;;;;16.92;5.70;;;6.40;99.90;;;;;;5090260;28;20115;-46
2022/11/03 05:36:20;;;;;;;17.63;6.65;;;6.40;99.90;;;;;;5074182;28;20025;-51
2022/11/03 05:38:46;;;;;;;11.68;5.43;;;6.40;99.90;;;;;;5074011;28;20025;-49
2022/11/03 05:41:21;;;;;;;22.77;7.35;;;6.50;99.90;;;;;;5074042;28;20146;-52
2022/11/03 05:43:59;;;;;;;18.70;7.70;;;6.60;99.90;;;;;;5073313;28;20029;-48
2022/11/03 05:46:28;;;;;;;18.35;5.80;;;6.70;99.90;;;;;;5074035;28;20048;-48
2022/11/03 05:48:54;;;;;;;17.92;5.40;;;6.70;99.90;;;;;;5072574;28;20035;-46
2022/11/03 05:51:42;;;;;;;12.95;5.60;;;6.60;99.90;;;;;;5073857;28;20105;-47
2022/11/03 05:54:21;;;;;;;14.10;5.45;;;6.40;99.90;;;;;;5073466;28;20458;-46
2022/11/03 05:56:47;;;;;;;10.70;5.95;;;6.30;99.90;;;;;;5073817;28;20016;-49
2022/11/03 05:59:14;;;;;;;12.23;4.60;;;6.30;99.90;;;;;;5073876;28;20082;-46
2022/11/03 06:01:40;;;;;;;18.40;4.72;;;6.30;99.90;;;;;;5073686;28;20070;-47
2022/11/03 06:04:27;;;;;;;13.27;6.10;;;6.30;99.90;;;;;;5073355;28;20021;-48
2022/11/03 06:06:57;;;;;;;13.45;4.00;;;6.30;99.90;;;;;;5073685;28;20091;-50
2022/11/03 06:09:25;;;;;;;11.45;5.88;;;6.20;99.90;;;;;;5073779;28;20063;-52
2022/11/03 06:11:56;;;;;;;11.55;4.32;;;6.20;99.90;;;;;;5073277;28;20029;-49
2022/11/03 06:14:24;;;;;;;12.18;4.68;;;6.20;99.90;;;;;;5072068;28;20032;-48
2022/11/03 06:17:20;;;;;;;13.43;5.00;;;6.20;99.90;;;;;;5073240;28;20028;-50
2022/11/03 06:19:48;;;;;;;13.63;4.38;;;6.10;99.90;;;;;;5073018;28;20495;-48
2022/11/03 06:22:20;;;;;;;18.02;4.63;;;6.10;99.90;;;;;;5072864;28;20111;-46
2022/11/03 06:24:46;;;;;;;12.98;5.10;;;6.10;99.90;;;;;;5071977;28;20480;-46
2022/11/03 06:27:22;;;;;;;10.95;5.18;;;6.10;99.90;;;;;;5073049;28;20025;-49
2022/11/03 06:29:57;;;;;;;18.08;5.28;;;6.10;99.90;;;;;;5073251;28;20025;-48
2022/11/03 06:32:23;;;;;;;12.73;4.88;;;6.20;99.90;;;;;;5071095;28;20484;-51
2022/11/03 06:34:55;;;;;;;9.43;5.20;;;6.60;99.90;;;;;;5071643;28;20043;-51
2022/11/03 06:37:20;;;;;;;13.30;4.85;;;6.10;99.90;;;;;;5071652;28;20051;-46
2022/11/03 06:39:48;;;;;;;12.90;4.22;;;6.10;99.90;;;;;;5073003;28;20606;-46
2022/11/03 06:42:15;;;;;;;11.38;5.10;;;6.10;99.90;;;;;;5072670;28;20020;-47
2022/11/03 06:44:44;;;;;;;13.50;5.65;;;6.20;99.90;;;;;;5072904;28;20033;-48
2022/11/03 06:47:22;;;;;;;16.60;5.43;;;6.30;99.90;;;;;;5071491;28;20028;-49
2022/11/03 06:49:50;;;;;;;23.15;5.72;;;6.40;99.90;;;;;;5072820;28;20032;-47
2022/11/03 06:52:36;;;;;;;18.10;5.60;;;6.40;99.90;;;;;;5072375;28;20024;-49
2022/11/03 06:55:10;;;;;;;14.35;5.57;;;6.50;99.90;;;;;;5071242;28;20033;-47
2022/11/03 06:57:38;;;;;;;19.10;6.43;;;6.60;99.90;;;;;;5071629;28;20031;-47
2022/11/03 07:00:24;;;;;;;13.85;4.78;;;6.70;99.90;;;;;;5072362;28;20150;-51
2022/11/03 07:02:56;;;;;;;10.55;4.57;;;6.80;99.90;;;;;;5070701;28;20032;-50
2022/11/03 07:05:25;;;;;;;17.70;5.53;;;6.80;99.90;;;;;;5072369;28;20021;-48
2022/11/03 07:08:09;;;;;;;12.30;5.68;;;6.70;99.90;;;;;;5072517;28;20039;-47
2022/11/03 07:10:35;;;;;;;14.45;5.32;;;6.80;99.90;;;;;;5070940;28;20028;-45
2022/11/03 07:13:09;;;;;;;11.35;5.15;;;6.80;99.90;;;;;;5071715;28;20484;-47
2022/11/03 07:15:38;;;;;;;16.48;5.35;;;6.80;99.90;;;;;;5072293;28;20029;-47
2022/11/03 07:18:12;;;;;;;15.88;5.25;;;6.80;99.90;;;;;;5072610;28;20017;-46
2022/11/03 07:20:38;;;;;;;12.57;6.68;;;6.90;99.90;;;;;;5072489;28;20545;-47
2022/11/03 07:23:04;;;;;;;11.85;5.22;;;7.00;99.90;;;;;;5071641;28;20047;-49
2022/11/03 07:25:30;;;;;;;12.30;5.30;;;7.00;99.90;;;;;;5072285;28;20484;-48
2022/11/03 07:27:56;;;;;;;13.25;4.88;;;7.00;99.90;;;;;;5072119;28;20024;-47
2022/11/03 07:30:25;;;;;;;18.70;5.85;;;7.10;99.90;;;;;;5071853;28;20104;-49
2022/11/03 07:32:52;;;;;;;15.23;5.72;;;7.20;99.90;;;;;;5071227;28;20154;-53
2022/11/03 07:35:38;;;;;;;10.43;5.25;;;7.20;99.90;;;;;;5070542;28;20036;-48
2022/11/03 07:38:12;;;;;;;9.15;5.07;;;7.30;99.90;;;;;;5071757;28;20091;-48
2022/11/03 07:40:38;;;;;;;19.90;6.50;;;7.40;99.90;;;;;;5070706;28;20021;-47
2022/11/03 07:43:18;;;;;;;17.75;5.75;;;7.60;99.90;;;;;;5071465;28;20020;-48
2022/11/03 07:45:47;;;;;;;15.70;5.00;;;7.70;99.90;;;;;;5071851;28;20021;-54
2022/11/03 07:48:22;;;;;;;40.78;7.20;;;7.90;99.90;;;;;;5072153;28;20499;-45
2022/11/03 07:50:50;;;;;;;13.57;5.83;;;8.10;99.90;;;;;;5071951;28;20078;-53
2022/11/03 07:53:24;;;;;;;16.50;5.25;;;8.30;99.90;;;;;;5071619;28;20255;-51
2022/11/03 07:55:53;;;;;;;16.60;5.25;;;8.40;99.90;;;;;;5072357;28;20021;-47
2022/11/03 07:58:23;;;;;;;12.30;6.32;;;8.60;99.90;;;;;;5071889;28;20021;-48
2022/11/03 08:00:49;;;;;;;18.08;5.80;;;8.60;99.90;;;;;;5071920;28;20391;-52
2022/11/03 08:03:27;;;;;;;12.68;6.72;;;8.60;99.90;;;;;;5072350;28;20047;-52
2022/11/03 08:05:52;;;;;;;10.35;5.57;;;8.50;99.90;;;;;;5072064;28;20023;-47
2022/11/03 08:08:18;;;;;;;12.88;5.63;;;8.50;99.90;;;;;;5071571;28;20024;-50
2022/11/03 08:10:43;;;;;;;16.02;5.43;;;8.40;99.90;;;;;;5072169;28;20472;-47
2022/11/03 08:13:09;;;;;;;19.08;5.50;;;8.40;99.90;;;;;;5071295;28;20066;-46
2022/11/03 08:15:34;;;;;;;17.17;6.07;;;8.50;99.90;;;;;;5071004;28;20025;-48
2022/11/03 08:18:00;;;;;;;15.43;6.32;;;8.50;99.90;;;;;;5073108;28;20089;-47
2022/11/03 08:20:25;;;;;;;13.73;5.97;;;8.50;99.90;;;;;;5070873;28;20400;-48
2022/11/03 08:22:51;;;;;;;12.85;6.95;;;8.50;99.90;;;;;;5070904;28;20454;-48
2022/11/03 08:25:16;;;;;;;13.85;6.47;;;8.60;99.90;;;;;;5072327;28;20551;-58
2022/11/03 08:27:42;;;;;;;14.45;6.20;;;8.60;99.90;;;;;;5072928;28;20020;-55
2022/11/03 08:30:08;;;;;;;17.50;6.70;;;8.80;99.90;;;;;;5071884;28;20032;-57
2022/11/03 08:32:34;;;;;;;16.17;6.13;;;8.90;99.90;;;;;;5071527;28;20029;-55
2022/11/03 08:35:00;;;;;;;16.52;7.20;;;9.00;99.90;;;;;;5071390;28;20028;-58
2022/11/03 08:37:25;;;;;;;14.45;6.55;;;9.10;99.90;;;;;;5071590;28;20396;-51
2022/11/03 08:39:50;;;;;;;19.67;7.03;;;9.20;99.90;;;;;;5071242;28;20392;-49
2022/11/03 08:42:16;;;;;;;19.42;7.22;;;9.40;99.90;;;;;;5070530;28;20035;-51
2022/11/03 08:44:42;;;;;;;15.55;6.35;;;9.50;99.90;;;;;;5068824;28;20345;-52
2022/11/03 08:47:07;;;;;;;19.25;6.88;;;9.60;99.90;;;;;;5070439;28;20442;-47
2022/11/03 08:49:33;;;;;;;16.63;6.18;;;9.70;99.90;;;;;;5069315;28;20052;-50
2022/11/03 08:51:59;;;;;;;12.82;6.38;;;10.20;99.90;;;;;;5069641;28;20028;-49
2022/11/03 08:54:25;;;;;;;16.05;5.65;;;11.10;99.90;;;;;;5070268;28;20058;-50
2022/11/03 08:56:50;;;;;;;14.98;7.60;;;12.40;99.90;;;;;;5070124;28;20027;-47
2022/11/03 08:59:17;;;;;;;10.18;5.50;;;13.50;99.90;;;;;;5070794;28;20028;-50
2022/11/03 09:01:43;;;;;;;11.32;6.05;;;14.50;99.90;;;;;;5070805;28;20072;-48
2022/11/03 09:04:09;;;;;;;14.40;6.38;;;15.10;99.90;;;;;;5070418;28;20396;-50
2022/11/03 09:06:34;;;;;;;13.23;7.07;;;15.70;99.90;;;;;;5070916;28;20025;-47
2022/11/03 09:09:00;;;;;;;11.15;5.82;;;16.40;99.90;;;;;;5070857;28;20032;-46
2022/11/03 09:11:25;;;;;;;11.68;4.90;;;17.10;99.90;;;;;;5070633;28;20396;-46
2022/11/03 09:13:51;;;;;;;12.93;5.60;;;17.30;99.90;;;;;;5070285;28;20032;-49
2022/11/03 09:16:16;;;;;;;17.58;5.72;;;17.00;99.90;;;;;;5070779;28;20036;-49
2022/11/03 09:18:42;;;;;;;11.07;5.75;;;16.70;99.90;;;;;;5070756;28;20028;-49
2022/11/03 09:21:07;;;;;;;16.60;5.68;;;16.20;99.90;;;;;;5074038;28;20369;-51
2022/11/03 09:23:33;;;;;;;15.77;5.45;;;15.70;99.90;;;;;;5073967;28;20119;-48
2022/11/03 09:25:58;;;;;;;42.00;23.75;;;15.20;99.90;;;;;;5074135;28;20048;-51
2022/11/03 09:28:24;;;;;;;61.03;40.30;;;14.90;99.90;;;;;;5073831;28;20055;-47
2022/11/03 09:30:49;;;;;;;18.05;8.35;;;14.60;99.90;;;;;;5073774;28;20038;-49
2022/11/03 09:33:15;;;;;;;13.13;5.63;;;14.10;99.90;;;;;;5073646;28;20028;-50
2022/11/03 09:35:40;;;;;;;10.23;5.03;;;13.50;99.90;;;;;;5063300;28;20539;-48
2022/11/03 09:38:06;;;;;;;10.75;5.53;;;13.10;99.90;;;;;;5054876;28;20021;-47
2022/11/03 09:40:33;;;;;;;12.85;5.65;;;13.00;99.90;;;;;;5054832;28;20897;-46
2022/11/03 09:42:59;;;;;;;12.40;5.80;;;12.90;99.90;;;;;;5071922;28;20107;-48
2022/11/03 09:45:24;;;;;;;11.10;5.78;;;12.80;99.90;;;;;;5072939;28;20108;-45
2022/11/03 09:47:50;;;;;;;9.55;6.00;;;12.70;99.90;;;;;;5073052;28;20040;-45
2022/11/03 09:50:18;;;;;;;15.75;6.07;;;12.70;99.90;;;;;;5073067;28;20114;-50
2022/11/03 09:52:45;;;;;;;17.00;6.55;;;12.50;99.90;;;;;;5073413;28;20331;-46
2022/11/03 09:55:16;;;;;;;16.42;6.35;;;12.40;99.90;;;;;;5073755;28;20220;-47
2022/11/03 09:57:42;;;;;;;15.80;6.97;;;12.40;99.90;;;;;;5072300;28;20508;-47
2022/11/03 10:00:19;;;;;;;15.50;6.18;;;12.30;99.90;;;;;;5073773;28;20029;-50
2022/11/03 10:02:46;;;;;;;11.73;6.43;;;12.40;99.90;;;;;;5073299;28;20021;-45
2022/11/03 10:05:15;;;;;;;10.38;5.88;;;12.50;99.90;;;;;;5073497;28;20170;-45
2022/11/03 10:07:42;;;;;;;14.25;6.03;;;12.90;99.90;;;;;;5072457;28;20634;-46
2022/11/03 10:10:15;;;;;;;13.93;5.78;;;13.10;99.90;;;;;;5073165;28;20039;-49
2022/11/03 10:12:41;;;;;;;14.80;5.80;;;13.10;99.90;;;;;;5072603;28;20021;-49
2022/11/03 10:15:16;;;;;;;14.98;6.53;;;13.00;99.90;;;;;;5073066;28;20052;-45
2022/11/03 10:17:43;;;;;;;13.45;6.32;;;12.80;99.90;;;;;;5072213;28;20434;-44
2022/11/03 10:20:11;;;;;;;13.43;5.50;;;13.00;99.90;;;;;;5073782;28;20369;-45
2022/11/03 10:22:37;;;;;;;12.63;5.07;;;13.10;99.90;;;;;;5072793;28;20071;-48
2022/11/03 10:25:34;;;;;;;15.45;6.88;;;13.20;99.90;;;;;;5072934;28;20048;-46
2022/11/03 10:28:21;;;;;;;13.50;6.63;;;13.20;99.90;;;;;;5073082;28;20027;-49
2022/11/03 10:31:08;;;;;;;12.30;6.57;;;13.20;99.90;;;;;;5069914;28;20392;-46
2022/11/03 10:33:39;;;;;;;11.93;6.43;;;13.30;99.90;;;;;;5072385;28;20028;-54
2022/11/03 10:36:14;;;;;;;12.05;6.57;;;13.20;99.90;;;;;;5065700;28;20024;-50
2022/11/03 10:38:40;;;;;;;11.18;6.97;;;13.00;99.90;;;;;;5070096;28;20016;-51
2022/11/03 10:41:15;;;;;;;16.33;6.10;;;13.00;99.90;;;;;;5069447;28;20115;-47
2022/11/03 10:43:43;;;;;;;18.10;5.93;;;12.90;99.90;;;;;;5071949;28;20032;-52
2022/11/03 10:46:15;;;;;;;9.45;4.97;;;13.00;99.90;;;;;;5072961;28;20384;-51
2022/11/03 10:48:40;;;;;;;13.13;6.22;;;12.90;99.90;;;;;;5068829;28;20397;-56
2022/11/03 10:51:12;;;;;;;14.88;6.68;;;12.90;99.90;;;;;;5052403;28;20032;-51
2022/11/03 10:53:39;;;;;;;13.73;6.50;;;12.80;99.90;;;;;;5052266;28;20028;-53
2022/11/03 10:56:05;;;;;;;18.77;6.30;;;12.70;99.90;;;;;;5050959;28;20056;-50
2022/11/03 10:58:31;;;;;;;12.45;6.18;;;12.70;99.90;;;;;;5052085;28;20060;-51
2022/11/03 11:00:57;;;;;;;16.13;6.22;;;12.60;99.90;;;;;;5052309;28;20021;-57
2022/11/03 11:03:22;;;;;;;86.03;50.35;;;12.50;99.90;;;;;;5052152;28;20073;-52
2022/11/03 11:05:48;;;;;;;27.55;16.83;;;12.50;99.90;;;;;;5052001;28;20036;-50
2022/11/03 11:08:21;;;;;;;13.43;6.45;;;12.40;99.90;;;;;;5051612;28;20449;-55
2022/11/03 11:10:46;;;;;;;14.07;6.22;;;12.30;99.90;;;;;;5050564;28;20094;-50
2022/11/03 11:13:18;;;;;;;15.05;6.28;;;12.30;99.90;;;;;;5051245;28;20036;-54
2022/11/03 11:15:44;;;;;;;17.83;6.45;;;12.30;99.90;;;;;;5050507;28;20431;-49
2022/11/03 11:18:30;;;;;;;19.48;6.22;;;12.40;99.90;;;;;;5051612;28;20027;-54
2022/11/03 11:20:57;;;;;;;;;;;12.30;99.90;;;;;;5053870;28;20044;-54
2022/11/03 11:23:25;;;;;;;15.57;6.25;;;12.30;99.90;;;;;;5064285;28;19994;-51
2022/11/03 11:26:09;;;;;;;16.05;6.63;;;12.30;99.90;;;;;;5060994;28;20123;-49
2022/11/03 11:28:35;;;;;;;16.17;6.35;;;12.30;99.90;;;;;;5051605;28;20032;-49
2022/11/03 11:31:21;;;;;;;20.60;7.53;;;12.30;99.90;;;;;;5050134;28;20029;-50
2022/11/03 11:33:47;;;;;;;11.77;5.93;;;12.30;99.90;;;;;;5050985;28;20025;-53
2022/11/03 11:36:22;;;;;;;11.55;5.60;;;12.30;99.90;;;;;;5051677;28;20108;-51
2022/11/03 11:38:47;;;;;;;14.83;6.53;;;12.30;99.90;;;;;;5056205;28;20392;-48
2022/11/03 11:41:13;;;;;;;13.93;5.97;;;12.30;99.90;;;;;;5070695;28;20258;-49
2022/11/03 11:43:38;;;;;;;18.98;7.15;;;12.30;99.90;;;;;;5068596;28;20365;-50
2022/11/03 11:46:25;;;;;;;11.57;7.18;;;12.30;99.90;;;;;;5069814;28;20035;-49
2022/11/03 11:49:02;;;;;;;11.77;5.85;;;12.20;99.90;;;;;;5071452;28;20032;-50
2022/11/03 11:51:36;;;;;;;16.30;6.35;;;12.10;99.90;;;;;;5071202;28;20032;-50
2022/11/03 11:54:16;;;;;;;15.82;8.15;;;12.20;99.90;;;;;;5070839;28;20021;-51
2022/11/03 11:56:47;;;;;;;14.25;6.55;;;12.20;99.90;;;;;;5071229;28;20081;-51
2022/11/03 11:59:22;;;;;;;15.82;6.97;;;12.20;99.90;;;;;;5071281;28;20040;-52
2022/11/03 12:01:50;;;;;;;13.30;6.93;;;12.20;99.90;;;;;;5071044;28;20051;-47
2022/11/03 12:04:30;;;;;;;14.70;6.75;;;12.20;99.90;;;;;;5062274;28;20025;-48
2022/11/03 12:06:56;;;;;;;14.55;7.18;;;12.20;99.90;;;;;;5052799;28;20449;-50
2022/11/03 12:09:25;;;;;;;12.05;6.30;;;12.20;99.90;;;;;;5070599;28;20025;-50
2022/11/03 12:11:54;;;;;;;14.60;6.40;;;12.10;99.90;;;;;;5071466;28;20032;-55
2022/11/03 12:14:31;;;;;;;16.33;7.32;;;12.20;99.90;;;;;;5070188;28;20142;-51
2022/11/03 12:17:18;;;;;;;11.30;6.35;;;12.20;99.90;;;;;;5071014;28;20434;-51
2022/11/03 12:19:51;;;;;;;17.58;7.38;;;12.20;99.90;;;;;;5070746;28;20036;-50
2022/11/03 12:22:23;;;;;;;20.33;6.70;;;12.20;99.90;;;;;;5070722;28;20426;-48
2022/11/03 12:24:52;;;;;;;21.73;6.50;;;12.10;99.90;;;;;;5070894;28;20506;-48
2022/11/03 12:27:25;;;;;;;13.25;6.75;;;12.30;99.90;;;;;;5070172;28;20755;-48
2022/11/03 12:29:53;;;;;;;15.48;5.95;;;12.20;99.90;;;;;;5059849;28;20032;-47
2022/11/03 12:32:19;;;;;;;11.68;6.65;;;12.20;99.90;;;;;;5070106;28;20033;-50
2022/11/03 12:34:45;;;;;;;20.95;6.60;;;12.10;99.90;;;;;;5068944;28;20028;-53
2022/11/03 12:37:11;;;;;;;14.77;6.47;;;12.10;99.90;;;;;;5070153;28;20435;-47
2022/11/03 12:39:36;;;;;;;14.50;6.70;;;12.20;99.90;;;;;;5061947;28;20025;-46
2022/11/03 12:42:02;;;;;;;13.43;6.20;;;12.20;99.90;;;;;;5053514;28;20059;-51
2022/11/03 12:44:28;;;;;;;15.07;7.07;;;12.30;99.90;;;;;;5060418;28;20404;-48
2022/11/03 12:46:54;;;;;;;13.23;6.57;;;12.40;99.90;;;;;;5055685;28;20172;-48
2022/11/03 12:49:19;;;;;;;15.38;6.43;;;12.50;99.90;;;;;;5050589;28;20100;-51
2022/11/03 12:51:45;;;;;;;14.40;7.18;;;12.60;99.90;;;;;;5054852;28;20025;-49
2022/11/03 12:54:10;;;;;;;15.70;6.18;;;12.60;99.90;;;;;;5053889;28;20039;-49
2022/11/03 12:56:36;;;;;;;13.13;5.90;;;12.70;99.90;;;;;;5063623;28;20082;-45
2022/11/03 12:59:01;;;;;;;14.60;6.78;;;12.80;99.90;;;;;;5072210;22;20420;-48
2022/11/03 13:01:27;;;;;;;11.43;5.50;;;12.80;99.90;;;;;;5040952;28;20033;-54
2022/11/03 13:03:52;;;;;;;14.40;5.97;;;12.90;99.90;;;;;;5048089;28;20033;-55
2022/11/03 13:06:18;;;;;;;13.43;5.38;;;12.90;99.90;;;;;;5037503;28;20511;-55
2022/11/03 13:08:43;;;;;;;17.83;6.22;;;12.90;99.90;;;;;;5051727;28;20056;-56
2022/11/03 13:13:54;;;;;;;13.75;5.72;;;12.80;99.90;;;;;;5056477;28;20040;-55
2022/11/03 13:16:19;;;;;;;12.40;5.82;;;12.80;99.90;;;;;;5058747;28;20473;-50
2022/11/03 13:18:45;;;;;;;15.35;6.68;;;12.70;99.90;;;;;;5064270;28;20078;-54
2022/11/03 13:21:12;;;;;;;11.70;5.70;;;12.70;99.90;;;;;;5058683;28;20078;-57